createdAt,value
2023-02-11T00:01:42.714Z,47.58
2023-02-11T00:04:14.498Z,45.67
2023-02-11T00:06:46.193Z,46.80
2023-02-11T00:09:17.882Z,48.67
2023-02-11T00:11:51.900Z,46.85
2023-02-11T00:14:26.198Z,45.13
2023-02-11T00:16:57.963Z,45.42
2023-02-11T00:19:29.660Z,46.25
2023-02-11T00:22:01.337Z,43.10
2023-02-11T00:24:33.002Z,44.97
2023-02-11T00:27:04.744Z,42.17
2023-02-11T00:29:37.667Z,46.17
2023-02-11T00:32:10.516Z,44.65
2023-02-11T00:34:42.208Z,46.63
2023-02-11T00:37:16.801Z,43.15
2023-02-11T00:39:50.165Z,51.20
2023-02-11T00:42:21.932Z,48.47
2023-02-11T00:44:55.748Z,44.80
2023-02-11T00:47:27.753Z,42.13
2023-02-11T00:50:01.020Z,46.15
2023-02-11T00:52:33.075Z,50.08
2023-02-11T00:55:05.033Z,47.25
2023-02-11T00:57:37.923Z,48.97
2023-02-11T01:00:11.543Z,47.90
2023-02-11T01:02:43.208Z,45.95
2023-02-11T01:05:15.438Z,47.47
2023-02-11T01:07:47.216Z,48.33
2023-02-11T01:10:19.122Z,51.20
2023-02-11T01:12:52.220Z,48.70
2023-02-11T01:15:24.310Z,49.60
2023-02-11T01:17:56.081Z,52.38
2023-02-11T01:20:31.117Z,49.45
2023-02-11T01:23:02.820Z,45.15
2023-02-11T01:25:34.445Z,51.03
2023-02-11T01:28:19.306Z,48.38
2023-02-11T01:30:51.544Z,47.95
2023-02-11T01:33:23.887Z,47.67
2023-02-11T01:35:55.686Z,47.25
2023-02-11T01:38:27.386Z,44.72
2023-02-11T01:41:05.491Z,48.13
2023-02-11T01:43:43.032Z,48.30
2023-02-11T01:46:29.064Z,47.97
2023-02-11T01:49:09.660Z,48.25
2023-02-11T01:51:50.117Z,49.47
2023-02-11T01:54:44.780Z,51.22
2023-02-11T01:57:22.314Z,51.93
2023-02-11T02:00:07.373Z,50.30
2023-02-11T02:02:57.277Z,47.58
2023-02-11T02:05:46.961Z,44.67
2023-02-11T02:08:29.502Z,53.53
2023-02-11T02:11:01.331Z,45.22
2023-02-11T02:13:36.120Z,48.30
2023-02-11T02:21:36.458Z,46.50
2023-02-11T02:24:29.126Z,48.72
2023-02-11T02:27:22.480Z,45.05
2023-02-11T02:30:26.700Z,44.00
2023-02-11T02:33:22.675Z,48.28
2023-02-11T02:36:09.716Z,46.00
2023-02-11T02:38:50.944Z,47.97
2023-02-11T02:41:29.128Z,48.00
2023-02-11T02:44:01.303Z,45.70
2023-02-11T02:46:34.873Z,46.65
2023-02-11T02:49:11.024Z,49.17
2023-02-11T02:52:05.220Z,46.17
2023-02-11T02:54:58.541Z,45.20
2023-02-11T02:57:46.587Z,44.17
2023-02-11T03:00:31.716Z,44.78
2023-02-11T03:03:20.933Z,45.88
2023-02-11T03:06:04.341Z,44.25
2023-02-11T03:08:51.304Z,41.92
2023-02-11T03:11:24.425Z,47.25
2023-02-11T03:13:57.924Z,41.33
2023-02-11T03:16:31.027Z,47.40
2023-02-11T03:19:16.773Z,42.03
2023-02-11T03:21:51.943Z,40.00
2023-02-11T03:24:38.621Z,41.35
2023-02-11T03:27:18.469Z,42.70
2023-02-11T03:29:58.269Z,41.05
2023-02-11T03:32:38.989Z,41.35
2023-02-11T03:35:23.123Z,40.08
2023-02-11T03:37:59.823Z,40.38
2023-02-11T03:40:39.822Z,43.10
2023-02-11T03:43:23.186Z,39.47
2023-02-11T03:45:56.670Z,38.47
2023-02-11T03:48:37.962Z,38.90
2023-02-11T03:51:12.777Z,41.05
2023-02-11T03:56:22.128Z,38.38
2023-02-11T03:58:53.823Z,39.40
2023-02-11T04:01:25.597Z,39.60
2023-02-11T04:03:57.381Z,37.33
2023-02-11T04:06:29.076Z,38.55
2023-02-11T04:09:00.789Z,37.42
2023-02-11T04:11:32.663Z,42.00
2023-02-11T04:14:04.771Z,37.53
2023-02-11T04:16:36.503Z,40.10
2023-02-11T04:19:08.336Z,34.10
2023-02-11T04:21:39.981Z,37.80
2023-02-11T04:24:11.714Z,34.88
2023-02-11T04:26:43.367Z,38.08
2023-02-11T04:29:18.362Z,37.38
2023-02-11T04:31:50.272Z,35.53
2023-02-11T04:34:22.127Z,37.10
2023-02-11T04:36:55.185Z,32.83
2023-02-11T04:39:26.934Z,34.83
2023-02-11T04:41:58.534Z,35.90
2023-02-11T04:44:30.451Z,34.60
2023-02-11T04:47:04.151Z,35.20
2023-02-11T04:49:35.922Z,32.53
2023-02-11T04:52:08.301Z,32.35
2023-02-11T04:54:40.673Z,39.20
2023-02-11T04:57:12.360Z,35.15
2023-02-11T04:59:44.198Z,35.10
2023-02-11T05:02:15.836Z,33.20
2023-02-11T05:04:47.678Z,35.17
2023-02-11T05:07:19.351Z,36.33
2023-02-11T05:09:50.993Z,34.55
2023-02-11T05:12:22.630Z,32.28
2023-02-11T05:14:54.325Z,31.10
2023-02-11T05:17:26.022Z,37.40
2023-02-11T05:19:57.784Z,33.80
2023-02-11T05:22:29.448Z,34.97
2023-02-11T05:25:01.140Z,31.08
2023-02-11T05:27:32.778Z,31.42
2023-02-11T05:30:06.088Z,32.65
2023-02-11T05:32:37.867Z,33.63
2023-02-11T05:35:09.677Z,34.15
2023-02-11T05:37:41.360Z,35.40
2023-02-11T05:40:13.100Z,31.88
2023-02-11T05:42:44.847Z,35.65
2023-02-11T05:45:16.586Z,33.42
2023-02-11T05:47:48.244Z,37.45
2023-02-11T05:50:20.423Z,34.22
2023-02-11T05:52:52.435Z,32.65
2023-02-11T05:55:24.193Z,35.08
2023-02-11T05:57:55.868Z,27.30
2023-02-11T06:00:30.284Z,33.35
2023-02-11T06:03:02.030Z,30.90
2023-02-11T06:05:33.856Z,32.17
2023-02-11T06:08:05.585Z,32.83
2023-02-11T06:10:37.918Z,31.60
2023-02-11T06:13:09.594Z,30.15
2023-02-11T06:15:41.302Z,30.75
2023-02-11T06:18:12.980Z,31.85
2023-02-11T06:20:44.641Z,28.90
2023-02-11T06:23:16.290Z,30.15
2023-02-11T06:25:48.026Z,28.80
2023-02-11T06:28:19.969Z,33.55
2023-02-11T06:30:51.717Z,30.17
2023-02-11T06:33:23.797Z,30.02
2023-02-11T06:35:58.380Z,28.20
2023-02-11T06:38:30.051Z,29.65
2023-02-11T06:41:01.708Z,29.80
2023-02-11T06:43:33.362Z,32.15
2023-02-11T06:46:05.176Z,31.00
2023-02-11T06:48:36.985Z,29.40
2023-02-11T06:51:11.356Z,29.33
2023-02-11T06:53:47.225Z,30.52
2023-02-11T06:56:21.513Z,27.45
2023-02-11T06:58:58.148Z,29.85
2023-02-11T07:01:29.937Z,32.97
2023-02-11T07:04:01.565Z,27.67
2023-02-11T07:06:33.309Z,29.20
2023-02-11T07:09:05.402Z,31.77
2023-02-11T07:11:37.069Z,29.33
2023-02-11T07:14:08.788Z,29.80
2023-02-11T07:16:40.616Z,33.85
2023-02-11T07:19:12.321Z,28.88
2023-02-11T07:21:44.019Z,30.35
2023-02-11T07:24:16.014Z,32.78
2023-02-11T07:26:47.702Z,30.88
2023-02-11T07:29:19.373Z,30.83
2023-02-11T07:31:51.115Z,33.53
2023-02-11T07:34:22.854Z,29.67
2023-02-11T07:36:54.647Z,31.70
2023-02-11T07:39:27.597Z,29.27
2023-02-11T07:42:00.103Z,29.58
2023-02-11T07:44:33.331Z,32.47
2023-02-11T07:47:05.098Z,29.55
2023-02-11T07:49:36.896Z,26.52
2023-02-11T07:52:08.607Z,30.10
2023-02-11T07:54:40.382Z,29.65
2023-02-11T07:57:12.134Z,31.27
2023-02-11T07:59:43.799Z,30.55
2023-02-11T08:02:15.549Z,29.67
2023-02-11T08:04:47.338Z,29.20
2023-02-11T08:07:19.782Z,27.30
2023-02-11T08:09:51.514Z,27.98
2023-02-11T08:12:23.242Z,26.80
2023-02-11T08:14:56.251Z,29.63
2023-02-11T08:17:27.935Z,27.27
2023-02-11T08:20:02.442Z,28.42
2023-02-11T08:22:35.015Z,27.65
2023-02-11T08:25:06.950Z,30.00
2023-02-11T08:27:38.801Z,29.13
2023-02-11T08:30:11.210Z,24.83
2023-02-11T08:32:42.895Z,28.05
2023-02-11T08:35:14.583Z,28.35
2023-02-11T08:37:46.285Z,28.08
2023-02-11T08:40:18.049Z,27.45
2023-02-11T08:42:49.728Z,27.73
2023-02-11T08:45:21.493Z,27.65
2023-02-11T08:47:53.258Z,26.65
2023-02-11T08:50:25.829Z,31.25
2023-02-11T08:52:57.549Z,25.23
2023-02-11T08:55:29.289Z,28.40
2023-02-11T08:58:00.981Z,29.65
2023-02-11T09:00:32.869Z,29.02
2023-02-11T09:03:04.752Z,29.00
2023-02-11T09:05:43.822Z,28.90
2023-02-11T09:08:16.217Z,27.42
2023-02-11T09:10:47.994Z,27.73
2023-02-11T09:13:19.716Z,29.63
2023-02-11T09:15:54.478Z,30.67
2023-02-11T09:18:26.796Z,29.50
2023-02-11T09:21:07.035Z,28.95
2023-02-11T09:23:38.935Z,28.83
2023-02-11T09:26:34.924Z,26.02
2023-02-11T09:29:07.014Z,28.67
2023-02-11T09:31:38.913Z,24.38
2023-02-11T09:34:12.269Z,30.65
2023-02-11T09:36:44.031Z,28.17
2023-02-11T09:39:17.511Z,29.67
2023-02-11T09:42:20.087Z,26.42
2023-02-11T09:44:52.495Z,26.85
2023-02-11T09:47:35.536Z,28.63
2023-02-11T09:50:12.474Z,25.52
2023-02-11T09:53:04.958Z,29.65
2023-02-11T09:55:44.990Z,29.98
2023-02-11T09:58:25.669Z,29.98
2023-02-11T10:01:17.164Z,27.27
2023-02-11T10:04:08.509Z,28.23
2023-02-11T10:06:50.679Z,25.67
2023-02-11T10:09:22.443Z,34.10
2023-02-11T10:12:48.234Z,31.45
2023-02-11T10:15:57.436Z,29.42
2023-02-11T10:18:52.206Z,27.35
2023-02-11T10:21:34.355Z,29.35
2023-02-11T10:24:12.581Z,26.67
2023-02-11T10:26:45.612Z,26.88
2023-02-11T10:29:38.573Z,31.00
2023-02-11T10:32:38.661Z,27.20
2023-02-11T10:35:22.028Z,30.20
2023-02-11T10:37:55.832Z,30.13
2023-02-11T10:40:29.752Z,26.53
2023-02-11T10:43:06.115Z,29.63
2023-02-11T10:45:48.654Z,29.02
2023-02-11T10:48:43.325Z,26.00
2023-02-11T10:51:15.067Z,29.33
2023-02-11T10:53:49.662Z,28.13
2023-02-11T10:56:27.831Z,31.40
2023-02-11T10:59:05.775Z,30.45
2023-02-11T11:01:50.181Z,27.95
2023-02-11T11:04:32.191Z,24.42
2023-02-11T11:07:22.902Z,28.42
2023-02-11T11:10:05.292Z,26.50
2023-02-11T11:12:45.931Z,29.75
2023-02-11T11:15:24.943Z,25.70
2023-02-11T11:18:24.588Z,30.17
2023-02-11T11:21:00.564Z,26.98
2023-02-11T11:23:34.648Z,31.77
2023-02-11T11:26:28.072Z,30.35
2023-02-11T11:29:10.597Z,27.42
2023-02-11T11:32:01.354Z,28.15
2023-02-11T11:34:37.251Z,25.35
2023-02-11T11:37:19.471Z,28.83
2023-02-11T11:40:04.082Z,23.73
2023-02-11T11:42:38.211Z,26.90
2023-02-11T11:45:16.096Z,26.92
2023-02-11T11:47:54.489Z,30.05
2023-02-11T11:50:38.418Z,27.48
2023-02-11T11:53:26.054Z,24.25
2023-02-11T11:56:05.012Z,25.83
2023-02-11T11:58:37.042Z,24.42
2023-02-11T12:01:20.031Z,24.08
2023-02-11T12:04:23.984Z,26.90
2023-02-11T12:07:07.894Z,25.92
2023-02-11T12:09:48.524Z,26.50
2023-02-11T12:12:34.463Z,27.67
2023-02-11T12:15:32.860Z,28.13
2023-02-11T12:18:35.335Z,26.17
2023-02-11T12:21:24.919Z,28.80
2023-02-11T12:24:10.171Z,24.40
2023-02-11T12:26:51.121Z,24.45
2023-02-11T12:29:25.573Z,27.45
2023-02-11T12:32:12.576Z,23.50
2023-02-11T12:34:53.175Z,29.17
2023-02-11T12:38:02.617Z,25.05
2023-02-11T12:41:15.205Z,25.83
2023-02-11T12:43:47.248Z,24.23
2023-02-11T12:46:24.951Z,30.95
2023-02-11T12:49:18.927Z,29.20
2023-02-11T12:51:59.422Z,27.10
2023-02-11T12:54:46.185Z,29.52
2023-02-11T12:57:26.579Z,26.17
2023-02-11T13:00:07.961Z,26.67
2023-02-11T13:02:55.061Z,26.25
2023-02-11T13:05:58.743Z,26.02
2023-02-11T13:08:44.480Z,26.25
2023-02-11T13:11:24.466Z,26.88
2023-02-11T13:14:04.045Z,28.73
2023-02-11T13:16:43.825Z,24.02
2023-02-11T13:19:31.232Z,27.30
2023-02-11T13:22:15.744Z,29.05
2023-02-11T13:25:00.350Z,27.83
2023-02-11T13:27:32.021Z,28.15
2023-02-11T13:30:26.980Z,25.92
2023-02-11T13:33:00.661Z,26.05
2023-02-11T13:35:35.338Z,26.52
2023-02-11T13:38:28.691Z,26.98
2023-02-11T13:41:13.752Z,27.83
2023-02-11T13:46:30.660Z,23.63
2023-02-11T13:49:02.432Z,24.23
2023-02-11T13:51:42.299Z,25.67
2023-02-11T13:54:34.540Z,23.80
2023-02-11T13:57:21.773Z,26.25
2023-02-11T14:00:20.940Z,24.73
2023-02-11T14:03:29.669Z,24.58
2023-02-11T14:06:29.181Z,24.45
2023-02-11T14:09:00.795Z,23.83
2023-02-11T14:11:37.005Z,24.83
2023-02-11T14:14:16.577Z,25.45
2023-02-11T14:17:04.655Z,25.27
2023-02-11T14:19:43.678Z,25.73
2023-02-11T14:22:23.678Z,24.05
2023-02-11T14:24:55.287Z,21.50
2023-02-11T14:27:43.114Z,23.38
2023-02-11T14:30:34.038Z,20.90
2023-02-11T14:33:37.970Z,23.42
2023-02-11T14:36:23.102Z,27.00
2023-02-11T14:41:42.268Z,25.58
2023-02-11T14:44:19.533Z,24.05
2023-02-11T14:46:53.470Z,23.13
2023-02-11T14:49:36.738Z,25.83
2023-02-11T14:52:14.081Z,27.95
2023-02-11T14:54:49.278Z,25.23
2023-02-11T14:57:20.999Z,21.02
2023-02-11T14:59:59.501Z,25.45
2023-02-11T15:02:38.644Z,25.08
2023-02-11T15:05:20.458Z,24.67
2023-02-11T15:07:55.804Z,23.23
2023-02-11T15:10:33.037Z,21.52
2023-02-11T15:13:08.174Z,22.70
2023-02-11T15:15:40.847Z,21.65
2023-02-11T15:18:24.620Z,23.35
2023-02-11T15:20:56.463Z,22.52
2023-02-11T15:23:30.543Z,28.05
2023-02-11T15:26:05.673Z,25.52
2023-02-11T15:28:37.345Z,24.55
2023-02-11T15:31:20.378Z,23.13
2023-02-11T15:33:52.973Z,23.65
2023-02-11T15:36:28.817Z,26.50
2023-02-11T15:39:30.502Z,23.23
2023-02-11T15:42:28.327Z,22.98
2023-02-11T15:45:15.370Z,23.40
2023-02-11T15:48:12.714Z,23.48
2023-02-11T15:50:52.358Z,22.52
2023-02-11T15:53:40.867Z,29.38
2023-02-11T15:56:12.784Z,23.17
2023-02-11T15:58:49.273Z,25.67
2023-02-11T16:01:33.152Z,26.40
2023-02-11T16:04:16.017Z,22.40
2023-02-11T16:06:50.037Z,22.40
2023-02-11T16:09:32.622Z,23.00
2023-02-11T16:12:27.233Z,27.65
2023-02-11T16:15:00.259Z,26.45
2023-02-11T16:17:31.927Z,26.38
2023-02-11T16:20:03.880Z,25.83
2023-02-11T16:22:38.137Z,24.05
2023-02-11T16:25:19.454Z,23.00
2023-02-11T16:27:54.788Z,24.90
2023-02-11T16:30:44.597Z,24.50
2023-02-11T16:33:16.382Z,29.42
2023-02-11T16:35:48.899Z,26.48
2023-02-11T16:38:21.244Z,23.88
2023-02-11T16:40:53.183Z,26.42
2023-02-11T16:43:25.139Z,22.60
2023-02-11T16:45:58.842Z,24.35
2023-02-11T16:48:32.264Z,23.90
2023-02-11T16:51:04.615Z,25.55
2023-02-11T16:53:36.319Z,25.27
2023-02-11T16:56:14.698Z,29.38
2023-02-11T16:58:46.475Z,26.75
2023-02-11T17:01:18.340Z,24.55
2023-02-11T17:03:50.219Z,26.50
2023-02-11T17:06:21.950Z,21.83
2023-02-11T17:08:53.792Z,26.73
2023-02-11T17:11:25.527Z,24.15
2023-02-11T17:13:57.194Z,24.02
2023-02-11T17:16:29.968Z,24.33
2023-02-11T17:19:02.286Z,24.80
2023-02-11T17:21:35.152Z,23.30
2023-02-11T17:24:07.080Z,23.10
2023-02-11T17:26:39.316Z,24.70
2023-02-11T17:29:16.389Z,24.42
2023-02-11T17:31:48.571Z,25.40
2023-02-11T17:34:21.963Z,24.40
2023-02-11T17:36:53.677Z,24.15
2023-02-11T17:39:25.905Z,25.08
2023-02-11T17:41:57.584Z,26.17
2023-02-11T17:44:29.249Z,22.58
2023-02-11T17:47:00.981Z,21.23
2023-02-11T17:49:33.227Z,26.65
2023-02-11T17:52:05.109Z,24.08
2023-02-11T17:54:38.082Z,23.27
2023-02-11T17:57:11.965Z,27.20
2023-02-11T17:59:43.646Z,27.67
2023-02-11T18:02:15.618Z,25.23
2023-02-11T18:04:47.372Z,24.58
2023-02-11T18:07:19.957Z,24.73
2023-02-11T18:09:52.032Z,24.92
2023-02-11T18:12:26.731Z,24.83
2023-02-11T18:14:58.465Z,24.48
2023-02-11T18:17:30.264Z,24.98
2023-02-11T18:20:03.560Z,28.05
2023-02-11T18:22:39.368Z,27.75
2023-02-11T18:25:16.119Z,27.63
2023-02-11T18:27:47.960Z,27.48
2023-02-11T18:30:20.600Z,24.33
2023-02-11T18:32:56.338Z,23.50
2023-02-11T18:35:28.044Z,25.25
2023-02-11T18:37:59.916Z,28.08
2023-02-11T18:40:31.611Z,28.98
2023-02-11T18:43:03.415Z,26.25
2023-02-11T18:45:35.329Z,27.10
2023-02-11T18:48:10.099Z,25.20
2023-02-11T18:53:17.809Z,24.00
2023-02-11T18:55:49.931Z,23.35
2023-02-11T18:58:21.787Z,24.08
2023-02-11T19:00:53.809Z,23.60
2023-02-11T19:03:25.575Z,25.30
2023-02-11T19:05:57.207Z,24.48
2023-02-11T19:08:28.907Z,21.95
2023-02-11T19:11:00.747Z,22.08
2023-02-11T19:13:35.902Z,24.58
2023-02-11T19:16:11.330Z,22.27
2023-02-11T19:18:53.250Z,22.67
2023-02-11T19:21:28.125Z,23.63
2023-02-11T19:24:03.026Z,20.85
2023-02-11T19:26:35.218Z,19.73
2023-02-11T19:29:07.086Z,22.95
2023-02-11T19:31:39.244Z,24.33
2023-02-11T19:34:14.099Z,23.73
2023-02-11T19:39:18.514Z,25.63
2023-02-11T19:41:50.313Z,21.25
2023-02-11T19:44:22.041Z,22.52
2023-02-11T19:46:54.780Z,21.08
2023-02-11T19:49:26.604Z,23.20
2023-02-11T19:51:58.642Z,21.20
2023-02-11T19:54:30.410Z,22.70
2023-02-11T19:57:02.173Z,23.17
2023-02-11T19:59:33.851Z,20.77
2023-02-11T20:02:05.491Z,21.40
2023-02-11T20:04:37.250Z,21.23
2023-02-11T20:07:08.960Z,20.48
2023-02-11T20:09:43.516Z,24.25
2023-02-11T20:12:15.232Z,22.30
2023-02-11T20:14:46.915Z,22.95
2023-02-11T20:17:18.535Z,21.02
2023-02-11T20:19:50.287Z,22.15
2023-02-11T20:22:21.951Z,23.67
2023-02-11T20:24:53.702Z,22.48
2023-02-11T20:27:29.012Z,24.55
2023-02-11T20:30:00.794Z,22.70
2023-02-11T20:32:37.882Z,22.08
2023-02-11T20:35:09.887Z,24.55
2023-02-11T20:37:44.039Z,23.10
2023-02-11T20:40:15.915Z,23.30
2023-02-11T20:42:48.617Z,23.35
2023-02-11T20:45:20.395Z,23.15
2023-02-11T20:47:52.062Z,23.67
2023-02-11T20:50:23.798Z,22.80
2023-02-11T20:52:55.430Z,24.85
2023-02-11T20:55:27.217Z,23.50
2023-02-11T20:57:58.928Z,22.98
2023-02-11T21:00:31.065Z,23.63
2023-02-11T21:03:04.217Z,21.27
2023-02-11T21:05:36.525Z,24.17
2023-02-11T21:08:11.545Z,21.52
2023-02-11T21:10:43.825Z,20.98
2023-02-11T21:13:15.522Z,19.05
2023-02-11T21:15:48.241Z,19.20
2023-02-11T21:18:19.921Z,23.92
2023-02-11T21:20:53.664Z,19.70
2023-02-11T21:23:26.083Z,18.92
2023-02-11T21:25:57.964Z,19.25
2023-02-11T21:28:29.795Z,20.65
2023-02-11T21:31:02.250Z,21.15
2023-02-11T21:33:34.600Z,19.33
2023-02-11T21:36:08.031Z,20.73
2023-02-11T21:38:39.732Z,17.13
2023-02-11T21:41:11.999Z,19.60
2023-02-11T21:43:43.922Z,17.73
2023-02-11T21:46:16.993Z,16.73
2023-02-11T21:48:49.426Z,17.63
2023-02-11T21:51:23.701Z,18.77
2023-02-11T21:54:02.929Z,18.85
2023-02-11T21:56:35.515Z,17.10
2023-02-11T21:59:07.246Z,19.63
2023-02-11T22:01:38.997Z,19.15
2023-02-11T22:04:10.837Z,20.65
2023-02-11T22:06:43.038Z,18.00
2023-02-11T22:09:14.762Z,17.90
2023-02-11T22:11:46.622Z,18.27
2023-02-11T22:14:19.138Z,20.50
2023-02-11T22:16:50.997Z,19.98
2023-02-11T22:19:24.066Z,20.15
2023-02-11T22:21:55.757Z,19.67
2023-02-11T22:24:29.035Z,19.35
2023-02-11T22:27:00.719Z,17.35
2023-02-11T22:29:32.503Z,19.63
2023-02-11T22:32:04.537Z,18.88
2023-02-11T22:34:36.635Z,19.17
2023-02-11T22:37:08.318Z,18.27
2023-02-11T22:39:40.068Z,22.05
2023-02-11T22:42:11.815Z,22.23
2023-02-11T22:44:43.539Z,21.38
2023-02-11T22:47:15.292Z,20.35
2023-02-11T22:49:47.008Z,21.67
2023-02-11T22:52:22.644Z,22.17
2023-02-11T22:54:55.187Z,20.83
2023-02-11T22:57:27.020Z,21.08
2023-02-11T22:59:58.690Z,21.00
2023-02-11T23:02:31.782Z,20.55
2023-02-11T23:05:03.896Z,21.38
2023-02-11T23:07:35.959Z,22.50
2023-02-11T23:10:08.405Z,24.73
2023-02-11T23:12:40.144Z,20.10
2023-02-11T23:15:11.866Z,23.73
2023-02-11T23:17:43.543Z,23.27
2023-02-11T23:20:15.360Z,21.63
2023-02-11T23:22:47.044Z,21.92
2023-02-11T23:25:18.737Z,20.30
2023-02-11T23:27:50.428Z,22.25
2023-02-11T23:30:22.178Z,19.65
2023-02-11T23:32:54.866Z,19.98
2023-02-11T23:35:26.580Z,18.17
2023-02-11T23:37:58.333Z,19.75
2023-02-11T23:40:30.168Z,18.42
2023-02-11T23:43:02.047Z,20.48
2023-02-11T23:45:33.795Z,17.73
2023-02-11T23:48:05.616Z,18.30
2023-02-11T23:50:39.660Z,19.48
2023-02-11T23:53:11.868Z,18.92
2023-02-11T23:55:45.427Z,18.92
2023-02-11T23:58:18.489Z,19.30
